createdAt,value
2019-03-18T17:38:49.676Z,1.93
2019-03-18T17:41:13.137Z,2.03
2019-03-18T17:43:36.616Z,2.70
2019-03-18T17:46:00.037Z,2.13
2019-03-18T17:48:23.460Z,1.87
2019-03-18T17:50:46.938Z,2.00
2019-03-18T17:53:10.353Z,1.70
2019-03-18T17:55:33.830Z,1.70
2019-03-18T18:05:03.470Z,1.50
2019-03-18T18:07:27.245Z,2.23
2019-03-18T18:09:51.177Z,1.70
2019-03-18T18:12:14.642Z,1.73
2019-03-18T18:14:38.064Z,1.70
2019-03-18T18:17:01.495Z,2.10
2019-03-18T18:19:25.494Z,2.33
2019-03-18T18:21:49.274Z,1.77
2019-03-18T18:24:12.701Z,1.90
2019-03-18T18:26:36.171Z,1.90
2019-03-18T18:28:59.597Z,2.13
2019-03-18T18:31:23.034Z,2.40
2019-03-18T18:33:46.791Z,2.20
2019-03-18T18:36:10.224Z,2.20
2019-03-18T18:38:33.903Z,2.43
2019-03-18T18:40:57.360Z,2.50
2019-03-18T18:43:21.151Z,2.10
2019-03-18T18:45:44.583Z,2.23
2019-03-18T18:48:08.042Z,4.50
2019-03-18T18:50:31.479Z,3.40
2019-03-18T18:52:54.957Z,4.00
2019-03-18T18:55:18.394Z,4.03
2019-03-18T18:57:41.834Z,4.57
2019-03-18T19:00:16.368Z,4.03
2019-03-18T19:02:39.832Z,3.00
2019-03-18T19:05:03.632Z,2.97
2019-03-18T19:07:27.181Z,2.73
2019-03-18T19:09:50.608Z,3.07
2019-03-18T19:12:14.049Z,2.80
2019-03-18T19:14:37.504Z,3.00
2019-03-18T19:17:00.927Z,2.73
2019-03-18T19:19:24.408Z,2.70
2019-03-18T19:21:47.838Z,2.83
2019-03-18T19:24:11.265Z,2.93
2019-03-18T19:26:34.714Z,2.40
2019-03-18T19:28:58.253Z,2.43
2019-03-18T19:31:21.680Z,1.90
2019-03-18T19:33:45.142Z,2.23
2019-03-18T19:36:08.861Z,3.20
2019-03-18T19:38:32.325Z,4.23
2019-03-18T19:40:56.011Z,4.03
2019-03-18T19:43:19.462Z,3.83
2019-03-18T19:45:42.911Z,3.50
2019-03-18T19:48:06.828Z,3.50
2019-03-18T19:50:34.597Z,3.87
2019-03-18T19:52:58.020Z,3.90
2019-03-18T19:55:21.500Z,4.03
2019-03-18T19:57:44.913Z,4.10
2019-03-18T20:00:23.300Z,4.60
2019-03-18T20:02:46.973Z,4.07
2019-03-18T20:05:15.152Z,2.83
2019-03-18T20:07:35.650Z,3.20
2019-03-18T20:09:59.131Z,2.60
2019-03-18T20:12:22.589Z,2.83
2019-03-18T20:14:46.069Z,2.63
2019-03-18T20:17:09.500Z,2.70
2019-03-18T20:19:32.918Z,2.87
2019-03-18T20:21:56.393Z,3.00
2019-03-18T20:24:19.864Z,2.90
2019-03-18T20:26:43.294Z,4.00
2019-03-18T20:29:06.759Z,3.57
2019-03-18T20:31:30.196Z,3.90
2019-03-18T20:33:53.660Z,3.53
2019-03-18T20:36:17.137Z,3.47
2019-03-18T20:38:40.560Z,3.23
2019-03-18T20:41:03.988Z,2.93
2019-03-18T20:43:29.951Z,2.50
2019-03-18T20:45:52.650Z,3.17
2019-03-18T20:48:16.113Z,3.27
2019-03-18T20:50:39.530Z,2.83
2019-03-18T20:53:03.000Z,3.30
2019-03-18T20:55:26.435Z,3.17
2019-03-18T20:57:49.898Z,3.10
2019-03-18T21:00:18.624Z,3.63
2019-03-18T21:02:42.109Z,2.80
2019-03-18T21:05:07.995Z,3.30
2019-03-18T21:07:31.424Z,3.60
2019-03-18T21:09:54.887Z,3.37
2019-03-18T21:12:18.329Z,3.27
2019-03-18T21:14:41.793Z,4.27
2019-03-18T21:17:05.218Z,3.63
2019-03-18T21:19:28.679Z,3.90
2019-03-18T21:21:52.338Z,3.53
2019-03-18T21:24:23.054Z,4.67
2019-03-18T21:26:40.972Z,4.70
2019-03-18T21:29:04.475Z,5.17
2019-03-18T21:31:27.955Z,4.97
2019-03-18T21:33:51.401Z,7.23
2019-03-18T21:36:28.238Z,7.57
2019-03-18T21:38:40.009Z,6.13
2019-03-18T21:41:03.465Z,6.40
2019-03-18T21:43:26.937Z,7.57
2019-03-18T21:45:50.629Z,7.63
2019-03-18T21:48:14.107Z,6.83
2019-03-18T21:50:37.535Z,6.90
2019-03-18T21:53:01.003Z,6.00
2019-03-18T21:55:24.437Z,5.43
2019-03-18T21:57:47.978Z,5.57
2019-03-18T22:00:21.758Z,4.20
2019-03-18T22:02:45.183Z,4.87
2019-03-18T22:05:08.725Z,5.20
2019-03-18T22:07:32.162Z,4.87
2019-03-18T22:09:55.618Z,4.23
2019-03-18T22:12:19.161Z,4.73
2019-03-18T22:14:42.623Z,3.80
2019-03-18T22:17:06.152Z,4.50
2019-03-18T22:19:29.623Z,4.77
2019-03-18T22:21:53.168Z,5.50
2019-03-18T22:24:16.636Z,5.90
2019-03-18T22:26:40.068Z,5.80
2019-03-18T22:29:03.527Z,6.93
2019-03-18T22:31:26.958Z,5.40
2019-03-18T22:33:50.687Z,5.57
2019-03-18T22:36:14.156Z,5.33
2019-03-18T22:38:37.584Z,5.03
2019-03-18T22:41:01.033Z,5.57
2019-03-18T22:43:24.470Z,5.37
2019-03-18T22:45:47.958Z,5.33
2019-03-18T22:48:11.387Z,5.17
2019-03-18T22:50:35.078Z,5.27
2019-03-18T22:52:58.805Z,4.83
2019-03-18T22:55:22.239Z,5.53
2019-03-18T22:57:45.705Z,5.40
2019-03-18T23:00:26.779Z,5.90
2019-03-18T23:02:50.566Z,5.23
2019-03-18T23:05:15.350Z,5.87
2019-03-18T23:07:38.807Z,5.10
2019-03-18T23:10:02.238Z,5.90
2019-03-18T23:12:25.702Z,6.10
2019-03-18T23:14:51.769Z,5.47
2019-03-18T23:17:15.206Z,5.77
2019-03-18T23:19:38.673Z,4.50
2019-03-18T23:22:02.099Z,4.90
2019-03-18T23:24:25.549Z,4.87
2019-03-18T23:26:49.003Z,5.43
2019-03-18T23:29:12.428Z,4.93
2019-03-18T23:31:36.158Z,5.50
2019-03-18T23:33:59.617Z,5.30
2019-03-18T23:36:23.089Z,5.03
2019-03-18T23:38:46.509Z,4.57
2019-03-18T23:41:09.974Z,5.33
2019-03-18T23:43:33.439Z,5.00
2019-03-18T23:45:56.897Z,4.40
2019-03-18T23:48:20.323Z,5.40
2019-03-18T23:50:43.795Z,4.40
2019-03-18T23:53:07.265Z,4.47
2019-03-18T23:55:30.697Z,5.30
2019-03-18T23:57:54.567Z,5.23
